Castle Point, New Jersey
Current Conditions -  °F | °C
As of 10:51 AM on Tuesday 21 Oct 2014 (Local Time) from KNYC Reporting Station
Few Clouds Few Clouds  
Wind Chill: 64°   Ceiling: Unl
Heat Index: 64°   Visibility: 10mi
Dew Point: 45°   Wind: 0mph
Humidity: 50%   Direction: NA
Pressure: 29.91"   Gusts: NA
Location:  40.7453°N, 74.032°W
Report Text: KNYC 211451Z AUTO 00000KT 10SM FEW034 FEW065 18/07 A2991 RMK AO2 SLP119 T01780072 58003 $
Loading
Personal Weather Stations






























Interactive Weather Map
Tropical Storm Tracking
New forecast layout! Learn more

10-Day Weather Forecast

Advertisements
Track Severe Weather on mobile